sensor_id;sensor_type;location;lat;lon;timestamp;P1;durP1;ratioP1;P2;durP2;ratioP2
11893;SDS011;6006;49.696;8.662;2023-02-13T00:01:22;9.37;;;5.33;;
11893;SDS011;6006;49.696;8.662;2023-02-13T00:03:51;9.23;;;5.87;;
11893;SDS011;6006;49.696;8.662;2023-02-13T00:06:18;7.93;;;5.83;;
11893;SDS011;6006;49.696;8.662;2023-02-13T00:08:44;7.27;;;5.50;;
11893;SDS011;6006;49.696;8.662;2023-02-13T00:11:11;8.30;;;5.20;;
11893;SDS011;6006;49.696;8.662;2023-02-13T00:13:38;7.23;;;5.43;;
11893;SDS011;6006;49.696;8.662;2023-02-13T00:16:05;9.00;;;5.80;;
11893;SDS011;6006;49.696;8.662;2023-02-13T00:18:33;8.53;;;6.00;;
11893;SDS011;6006;49.696;8.662;2023-02-13T00:21:03;8.30;;;5.97;;
11893;SDS011;6006;49.696;8.662;2023-02-13T00:23:32;7.60;;;5.63;;
11893;SDS011;6006;49.696;8.662;2023-02-13T00:26:00;8.23;;;5.57;;
11893;SDS011;6006;49.696;8.662;2023-02-13T00:28:31;8.77;;;6.10;;
11893;SDS011;6006;49.696;8.662;2023-02-13T00:31:01;10.03;;;6.13;;
11893;SDS011;6006;49.696;8.662;2023-02-13T00:33:29;8.03;;;5.43;;
11893;SDS011;6006;49.696;8.662;2023-02-13T00:36:00;7.47;;;5.50;;
11893;SDS011;6006;49.696;8.662;2023-02-13T00:38:30;7.47;;;5.07;;
11893;SDS011;6006;49.696;8.662;2023-02-13T00:40:57;6.90;;;5.40;;
11893;SDS011;6006;49.696;8.662;2023-02-13T00:43:24;7.63;;;5.27;;
11893;SDS011;6006;49.696;8.662;2023-02-13T00:45:52;8.90;;;5.57;;
11893;SDS011;6006;49.696;8.662;2023-02-13T00:48:19;7.00;;;5.10;;
11893;SDS011;6006;49.696;8.662;2023-02-13T00:50:46;8.00;;;5.67;;
11893;SDS011;6006;49.696;8.662;2023-02-13T00:53:15;7.10;;;5.30;;
11893;SDS011;6006;49.696;8.662;2023-02-13T00:55:41;8.73;;;5.53;;
11893;SDS011;6006;49.696;8.662;2023-02-13T00:58:08;7.87;;;5.37;;
11893;SDS011;6006;49.696;8.662;2023-02-13T01:00:35;8.03;;;5.30;;
11893;SDS011;6006;49.696;8.662;2023-02-13T01:03:02;8.37;;;6.00;;
11893;SDS011;6006;49.696;8.662;2023-02-13T01:05:29;6.17;;;5.13;;
11893;SDS011;6006;49.696;8.662;2023-02-13T01:07:56;7.97;;;5.47;;
11893;SDS011;6006;49.696;8.662;2023-02-13T01:10:24;10.07;;;5.90;;
11893;SDS011;6006;49.696;8.662;2023-02-13T01:12:52;11.07;;;6.20;;
11893;SDS011;6006;49.696;8.662;2023-02-13T01:15:19;8.50;;;6.03;;
11893;SDS011;6006;49.696;8.662;2023-02-13T01:17:46;8.83;;;5.73;;
11893;SDS011;6006;49.696;8.662;2023-02-13T01:20:13;8.80;;;5.37;;
11893;SDS011;6006;49.696;8.662;2023-02-13T01:22:40;10.40;;;5.50;;
11893;SDS011;6006;49.696;8.662;2023-02-13T01:25:08;7.27;;;5.33;;
11893;SDS011;6006;49.696;8.662;2023-02-13T01:27:37;7.83;;;5.00;;
11893;SDS011;6006;49.696;8.662;2023-02-13T01:30:04;8.77;;;5.27;;
11893;SDS011;6006;49.696;8.662;2023-02-13T01:32:35;7.53;;;4.77;;
11893;SDS011;6006;49.696;8.662;2023-02-13T01:35:03;9.87;;;5.73;;
11893;SDS011;6006;49.696;8.662;2023-02-13T01:37:30;6.90;;;5.37;;
11893;SDS011;6006;49.696;8.662;2023-02-13T01:39:57;8.17;;;5.63;;
11893;SDS011;6006;49.696;8.662;2023-02-13T01:42:25;8.80;;;5.30;;
11893;SDS011;6006;49.696;8.662;2023-02-13T01:44:55;10.37;;;5.90;;
11893;SDS011;6006;49.696;8.662;2023-02-13T01:47:23;8.90;;;5.80;;
11893;SDS011;6006;49.696;8.662;2023-02-13T01:49:58;7.60;;;5.47;;
11893;SDS011;6006;49.696;8.662;2023-02-13T01:52:28;10.40;;;6.37;;
11893;SDS011;6006;49.696;8.662;2023-02-13T01:54:55;9.83;;;6.23;;
11893;SDS011;6006;49.696;8.662;2023-02-13T01:57:23;9.43;;;6.10;;
11893;SDS011;6006;49.696;8.662;2023-02-13T01:59:56;9.00;;;6.17;;
11893;SDS011;6006;49.696;8.662;2023-02-13T02:02:26;9.77;;;6.03;;
11893;SDS011;6006;49.696;8.662;2023-02-13T02:04:54;9.40;;;5.77;;
11893;SDS011;6006;49.696;8.662;2023-02-13T02:07:22;9.87;;;5.93;;
11893;SDS011;6006;49.696;8.662;2023-02-13T02:09:52;10.23;;;6.27;;
11893;SDS011;6006;49.696;8.662;2023-02-13T02:12:23;9.50;;;6.07;;
11893;SDS011;6006;49.696;8.662;2023-02-13T02:14:53;10.43;;;6.00;;
11893;SDS011;6006;49.696;8.662;2023-02-13T02:17:24;10.00;;;5.77;;
11893;SDS011;6006;49.696;8.662;2023-02-13T02:19:54;9.90;;;6.30;;
11893;SDS011;6006;49.696;8.662;2023-02-13T02:22:34;11.43;;;5.30;;
11893;SDS011;6006;49.696;8.662;2023-02-13T02:29:07;10.70;;;5.67;;
11893;SDS011;6006;49.696;8.662;2023-02-13T02:32:09;12.20;;;5.80;;
11893;SDS011;6006;49.696;8.662;2023-02-13T02:34:50;8.93;;;5.53;;
11893;SDS011;6006;49.696;8.662;2023-02-13T02:37:31;11.50;;;6.00;;
11893;SDS011;6006;49.696;8.662;2023-02-13T02:40:10;8.77;;;5.73;;
11893;SDS011;6006;49.696;8.662;2023-02-13T02:42:49;9.40;;;5.70;;
11893;SDS011;6006;49.696;8.662;2023-02-13T02:45:24;9.07;;;6.27;;
11893;SDS011;6006;49.696;8.662;2023-02-13T02:47:58;10.43;;;5.87;;
11893;SDS011;6006;49.696;8.662;2023-02-13T02:50:45;10.53;;;5.97;;
11893;SDS011;6006;49.696;8.662;2023-02-13T02:53:21;8.03;;;5.53;;
11893;SDS011;6006;49.696;8.662;2023-02-13T02:55:58;9.20;;;5.57;;
11893;SDS011;6006;49.696;8.662;2023-02-13T02:58:32;9.97;;;5.33;;
11893;SDS011;6006;49.696;8.662;2023-02-13T03:01:26;10.37;;;6.10;;
11893;SDS011;6006;49.696;8.662;2023-02-13T03:04:15;8.10;;;5.47;;
11893;SDS011;6006;49.696;8.662;2023-02-13T03:07:03;9.33;;;5.40;;
11893;SDS011;6006;49.696;8.662;2023-02-13T03:09:34;8.37;;;4.90;;
11893;SDS011;6006;49.696;8.662;2023-02-13T03:12:23;8.93;;;5.30;;
11893;SDS011;6006;49.696;8.662;2023-02-13T03:15:09;9.63;;;5.97;;
11893;SDS011;6006;49.696;8.662;2023-02-13T03:17:36;9.50;;;4.97;;
11893;SDS011;6006;49.696;8.662;2023-02-13T03:23:20;8.70;;;5.83;;
11893;SDS011;6006;49.696;8.662;2023-02-13T03:29:10;7.77;;;4.97;;
11893;SDS011;6006;49.696;8.662;2023-02-13T03:32:02;7.83;;;5.30;;
11893;SDS011;6006;49.696;8.662;2023-02-13T03:34:37;7.97;;;5.00;;
11893;SDS011;6006;49.696;8.662;2023-02-13T03:37:28;10.70;;;6.00;;
11893;SDS011;6006;49.696;8.662;2023-02-13T03:40:16;11.07;;;5.87;;
11893;SDS011;6006;49.696;8.662;2023-02-13T03:42:50;9.63;;;5.63;;
11893;SDS011;6006;49.696;8.662;2023-02-13T03:45:20;10.27;;;6.43;;
11893;SDS011;6006;49.696;8.662;2023-02-13T03:48:08;8.97;;;5.90;;
11893;SDS011;6006;49.696;8.662;2023-02-13T03:50:56;8.93;;;5.97;;
11893;SDS011;6006;49.696;8.662;2023-02-13T03:53:25;11.03;;;6.63;;
11893;SDS011;6006;49.696;8.662;2023-02-13T03:55:54;12.63;;;6.50;;
11893;SDS011;6006;49.696;8.662;2023-02-13T03:58:42;10.53;;;7.13;;
11893;SDS011;6006;49.696;8.662;2023-02-13T04:01:29;11.23;;;6.07;;
11893;SDS011;6006;49.696;8.662;2023-02-13T04:04:00;11.83;;;6.57;;
11893;SDS011;6006;49.696;8.662;2023-02-13T04:06:34;11.33;;;6.03;;
11893;SDS011;6006;49.696;8.662;2023-02-13T04:09:09;9.40;;;5.87;;
11893;SDS011;6006;49.696;8.662;2023-02-13T04:11:36;9.00;;;6.47;;
11893;SDS011;6006;49.696;8.662;2023-02-13T04:14:10;12.73;;;5.90;;
11893;SDS011;6006;49.696;8.662;2023-02-13T04:16:43;12.90;;;6.80;;
11893;SDS011;6006;49.696;8.662;2023-02-13T04:19:13;12.47;;;5.70;;
11893;SDS011;6006;49.696;8.662;2023-02-13T04:21:41;11.83;;;7.10;;
11893;SDS011;6006;49.696;8.662;2023-02-13T04:24:09;11.90;;;7.73;;
11893;SDS011;6006;49.696;8.662;2023-02-13T04:26:36;11.23;;;7.50;;
11893;SDS011;6006;49.696;8.662;2023-02-13T04:29:05;13.00;;;7.53;;
11893;SDS011;6006;49.696;8.662;2023-02-13T04:31:32;14.70;;;8.13;;
11893;SDS011;6006;49.696;8.662;2023-02-13T04:33:59;12.47;;;8.17;;
11893;SDS011;6006;49.696;8.662;2023-02-13T04:36:26;16.43;;;8.43;;
11893;SDS011;6006;49.696;8.662;2023-02-13T04:38:53;16.87;;;9.83;;
11893;SDS011;6006;49.696;8.662;2023-02-13T04:41:21;19.77;;;9.23;;
11893;SDS011;6006;49.696;8.662;2023-02-13T04:43:48;16.57;;;9.53;;
11893;SDS011;6006;49.696;8.662;2023-02-13T04:46:16;15.30;;;9.00;;
11893;SDS011;6006;49.696;8.662;2023-02-13T04:48:43;15.60;;;8.43;;
11893;SDS011;6006;49.696;8.662;2023-02-13T04:51:10;18.10;;;8.87;;
11893;SDS011;6006;49.696;8.662;2023-02-13T04:53:37;15.60;;;8.73;;
11893;SDS011;6006;49.696;8.662;2023-02-13T04:56:04;11.80;;;6.93;;
11893;SDS011;6006;49.696;8.662;2023-02-13T04:58:32;15.63;;;7.80;;
11893;SDS011;6006;49.696;8.662;2023-02-13T05:00:59;14.53;;;8.40;;
11893;SDS011;6006;49.696;8.662;2023-02-13T05:03:26;13.77;;;8.67;;
11893;SDS011;6006;49.696;8.662;2023-02-13T05:05:53;11.60;;;7.57;;
11893;SDS011;6006;49.696;8.662;2023-02-13T05:08:20;15.70;;;7.83;;
11893;SDS011;6006;49.696;8.662;2023-02-13T05:10:47;16.50;;;7.20;;
11893;SDS011;6006;49.696;8.662;2023-02-13T05:13:14;13.97;;;7.20;;
11893;SDS011;6006;49.696;8.662;2023-02-13T05:15:42;12.33;;;7.63;;
11893;SDS011;6006;49.696;8.662;2023-02-13T05:18:09;13.80;;;7.33;;
11893;SDS011;6006;49.696;8.662;2023-02-13T05:20:36;12.53;;;7.73;;
11893;SDS011;6006;49.696;8.662;2023-02-13T05:23:03;13.30;;;7.57;;
11893;SDS011;6006;49.696;8.662;2023-02-13T05:25:46;12.17;;;7.10;;
11893;SDS011;6006;49.696;8.662;2023-02-13T05:28:13;13.60;;;7.60;;
11893;SDS011;6006;49.696;8.662;2023-02-13T05:30:59;13.73;;;7.57;;
11893;SDS011;6006;49.696;8.662;2023-02-13T05:33:26;14.47;;;8.03;;
11893;SDS011;6006;49.696;8.662;2023-02-13T05:35:53;12.80;;;7.60;;
11893;SDS011;6006;49.696;8.662;2023-02-13T05:38:20;14.50;;;7.43;;
11893;SDS011;6006;49.696;8.662;2023-02-13T05:40:47;14.67;;;7.83;;
11893;SDS011;6006;49.696;8.662;2023-02-13T05:43:14;14.37;;;8.07;;
11893;SDS011;6006;49.696;8.662;2023-02-13T05:45:40;12.67;;;7.40;;
11893;SDS011;6006;49.696;8.662;2023-02-13T05:48:09;14.50;;;7.60;;
11893;SDS011;6006;49.696;8.662;2023-02-13T05:50:36;14.53;;;7.53;;
11893;SDS011;6006;49.696;8.662;2023-02-13T05:53:03;13.23;;;7.47;;
11893;SDS011;6006;49.696;8.662;2023-02-13T05:55:30;15.73;;;8.03;;
11893;SDS011;6006;49.696;8.662;2023-02-13T05:57:57;10.27;;;6.80;;
11893;SDS011;6006;49.696;8.662;2023-02-13T06:00:24;13.73;;;8.40;;
11893;SDS011;6006;49.696;8.662;2023-02-13T06:02:51;12.70;;;6.90;;
11893;SDS011;6006;49.696;8.662;2023-02-13T06:05:19;12.60;;;8.23;;
11893;SDS011;6006;49.696;8.662;2023-02-13T06:07:46;17.20;;;8.30;;
11893;SDS011;6006;49.696;8.662;2023-02-13T06:10:12;16.00;;;8.47;;
11893;SDS011;6006;49.696;8.662;2023-02-13T06:12:40;16.40;;;8.73;;
11893;SDS011;6006;49.696;8.662;2023-02-13T06:15:08;14.60;;;8.63;;
11893;SDS011;6006;49.696;8.662;2023-02-13T06:17:35;18.40;;;9.07;;
11893;SDS011;6006;49.696;8.662;2023-02-13T06:20:02;16.67;;;7.93;;
11893;SDS011;6006;49.696;8.662;2023-02-13T06:22:30;14.47;;;8.20;;
11893;SDS011;6006;49.696;8.662;2023-02-13T06:24:57;15.03;;;7.87;;
11893;SDS011;6006;49.696;8.662;2023-02-13T06:27:24;16.90;;;8.47;;
11893;SDS011;6006;49.696;8.662;2023-02-13T06:29:51;18.83;;;8.37;;
11893;SDS011;6006;49.696;8.662;2023-02-13T06:32:18;17.50;;;10.20;;
11893;SDS011;6006;49.696;8.662;2023-02-13T06:34:44;16.57;;;9.00;;
11893;SDS011;6006;49.696;8.662;2023-02-13T06:37:11;17.40;;;8.93;;
11893;SDS011;6006;49.696;8.662;2023-02-13T06:39:39;14.97;;;8.10;;
11893;SDS011;6006;49.696;8.662;2023-02-13T06:42:06;16.60;;;8.33;;
11893;SDS011;6006;49.696;8.662;2023-02-13T06:44:33;17.10;;;8.33;;
11893;SDS011;6006;49.696;8.662;2023-02-13T06:47:00;13.83;;;7.93;;
11893;SDS011;6006;49.696;8.662;2023-02-13T06:49:27;11.27;;;7.47;;
11893;SDS011;6006;49.696;8.662;2023-02-13T06:51:54;14.80;;;8.03;;
11893;SDS011;6006;49.696;8.662;2023-02-13T06:54:21;13.23;;;8.00;;
11893;SDS011;6006;49.696;8.662;2023-02-13T06:56:49;12.93;;;7.90;;
11893;SDS011;6006;49.696;8.662;2023-02-13T06:59:16;13.83;;;8.23;;
11893;SDS011;6006;49.696;8.662;2023-02-13T07:01:43;16.30;;;7.80;;
11893;SDS011;6006;49.696;8.662;2023-02-13T07:04:10;13.87;;;7.97;;
11893;SDS011;6006;49.696;8.662;2023-02-13T07:06:36;18.63;;;8.00;;
11893;SDS011;6006;49.696;8.662;2023-02-13T07:09:03;15.67;;;7.80;;
11893;SDS011;6006;49.696;8.662;2023-02-13T07:11:30;13.90;;;7.50;;
11893;SDS011;6006;49.696;8.662;2023-02-13T07:13:59;14.87;;;8.23;;
11893;SDS011;6006;49.696;8.662;2023-02-13T07:16:26;13.33;;;8.30;;
11893;SDS011;6006;49.696;8.662;2023-02-13T07:18:52;13.23;;;8.67;;
11893;SDS011;6006;49.696;8.662;2023-02-13T07:21:19;15.33;;;9.03;;
11893;SDS011;6006;49.696;8.662;2023-02-13T07:23:46;12.77;;;8.40;;
11893;SDS011;6006;49.696;8.662;2023-02-13T07:26:13;16.17;;;7.97;;
11893;SDS011;6006;49.696;8.662;2023-02-13T07:28:40;15.30;;;8.57;;
11893;SDS011;6006;49.696;8.662;2023-02-13T07:31:08;15.13;;;9.30;;
11893;SDS011;6006;49.696;8.662;2023-02-13T07:33:35;18.10;;;8.93;;
11893;SDS011;6006;49.696;8.662;2023-02-13T07:36:03;15.77;;;9.40;;
11893;SDS011;6006;49.696;8.662;2023-02-13T07:38:31;13.20;;;8.50;;
11893;SDS011;6006;49.696;8.662;2023-02-13T07:40:58;17.23;;;8.83;;
11893;SDS011;6006;49.696;8.662;2023-02-13T07:43:25;12.83;;;8.07;;
11893;SDS011;6006;49.696;8.662;2023-02-13T07:45:52;14.63;;;8.23;;
11893;SDS011;6006;49.696;8.662;2023-02-13T07:48:21;13.87;;;8.30;;
11893;SDS011;6006;49.696;8.662;2023-02-13T07:50:52;12.40;;;7.80;;
11893;SDS011;6006;49.696;8.662;2023-02-13T07:53:19;12.70;;;7.13;;
11893;SDS011;6006;49.696;8.662;2023-02-13T07:55:46;12.47;;;7.83;;
11893;SDS011;6006;49.696;8.662;2023-02-13T07:58:13;13.47;;;8.50;;
11893;SDS011;6006;49.696;8.662;2023-02-13T08:00:40;17.20;;;9.13;;
11893;SDS011;6006;49.696;8.662;2023-02-13T08:03:08;12.33;;;8.53;;
11893;SDS011;6006;49.696;8.662;2023-02-13T08:05:38;13.23;;;8.73;;
11893;SDS011;6006;49.696;8.662;2023-02-13T08:08:05;13.43;;;8.20;;
11893;SDS011;6006;49.696;8.662;2023-02-13T08:10:32;13.43;;;7.87;;
11893;SDS011;6006;49.696;8.662;2023-02-13T08:13:17;13.47;;;7.90;;
11893;SDS011;6006;49.696;8.662;2023-02-13T08:15:44;13.23;;;7.87;;
11893;SDS011;6006;49.696;8.662;2023-02-13T08:18:11;14.10;;;7.77;;
11893;SDS011;6006;49.696;8.662;2023-02-13T08:20:39;11.37;;;7.20;;
11893;SDS011;6006;49.696;8.662;2023-02-13T08:23:08;11.73;;;7.80;;
11893;SDS011;6006;49.696;8.662;2023-02-13T08:25:36;12.17;;;7.57;;
11893;SDS011;6006;49.696;8.662;2023-02-13T08:28:03;13.27;;;7.63;;
11893;SDS011;6006;49.696;8.662;2023-02-13T08:30:30;11.90;;;8.03;;
11893;SDS011;6006;49.696;8.662;2023-02-13T08:32:57;10.97;;;7.90;;
11893;SDS011;6006;49.696;8.662;2023-02-13T08:35:24;19.90;;;12.27;;
11893;SDS011;6006;49.696;8.662;2023-02-13T08:37:55;23.10;;;15.87;;
11893;SDS011;6006;49.696;8.662;2023-02-13T08:40:21;18.93;;;12.60;;
11893;SDS011;6006;49.696;8.662;2023-02-13T08:42:48;25.07;;;16.87;;
11893;SDS011;6006;49.696;8.662;2023-02-13T08:45:15;22.60;;;17.97;;
11893;SDS011;6006;49.696;8.662;2023-02-13T08:47:42;41.17;;;32.07;;
11893;SDS011;6006;49.696;8.662;2023-02-13T08:50:09;25.20;;;18.53;;
11893;SDS011;6006;49.696;8.662;2023-02-13T08:52:36;25.27;;;17.53;;
11893;SDS011;6006;49.696;8.662;2023-02-13T08:55:05;21.37;;;17.07;;
11893;SDS011;6006;49.696;8.662;2023-02-13T08:57:32;22.83;;;15.77;;
11893;SDS011;6006;49.696;8.662;2023-02-13T08:59:59;21.57;;;14.37;;
11893;SDS011;6006;49.696;8.662;2023-02-13T09:02:26;19.33;;;14.47;;
11893;SDS011;6006;49.696;8.662;2023-02-13T09:04:53;17.53;;;12.93;;
11893;SDS011;6006;49.696;8.662;2023-02-13T09:07:20;18.80;;;12.60;;
11893;SDS011;6006;49.696;8.662;2023-02-13T09:09:46;16.30;;;11.73;;
11893;SDS011;6006;49.696;8.662;2023-02-13T09:12:15;15.27;;;10.30;;
11893;SDS011;6006;49.696;8.662;2023-02-13T09:14:41;16.37;;;10.23;;
11893;SDS011;6006;49.696;8.662;2023-02-13T09:17:08;16.67;;;10.33;;
11893;SDS011;6006;49.696;8.662;2023-02-13T09:19:35;18.00;;;10.63;;
11893;SDS011;6006;49.696;8.662;2023-02-13T09:22:02;15.33;;;10.27;;
11893;SDS011;6006;49.696;8.662;2023-02-13T09:24:29;15.70;;;10.83;;
11893;SDS011;6006;49.696;8.662;2023-02-13T09:26:56;13.20;;;8.90;;
11893;SDS011;6006;49.696;8.662;2023-02-13T09:29:24;12.83;;;9.80;;
11893;SDS011;6006;49.696;8.662;2023-02-13T09:31:54;10.67;;;7.90;;
11893;SDS011;6006;49.696;8.662;2023-02-13T09:34:21;10.20;;;8.03;;
11893;SDS011;6006;49.696;8.662;2023-02-13T09:36:50;10.23;;;7.60;;
11893;SDS011;6006;49.696;8.662;2023-02-13T09:39:17;10.73;;;7.60;;
11893;SDS011;6006;49.696;8.662;2023-02-13T09:41:44;11.37;;;7.10;;
11893;SDS011;6006;49.696;8.662;2023-02-13T09:44:15;9.47;;;6.47;;
11893;SDS011;6006;49.696;8.662;2023-02-13T09:47:00;9.80;;;5.93;;
11893;SDS011;6006;49.696;8.662;2023-02-13T09:49:31;7.47;;;5.90;;
11893;SDS011;6006;49.696;8.662;2023-02-13T09:52:02;6.67;;;5.20;;
11893;SDS011;6006;49.696;8.662;2023-02-13T09:54:29;9.53;;;5.63;;
11893;SDS011;6006;49.696;8.662;2023-02-13T09:56:57;7.73;;;5.17;;
11893;SDS011;6006;49.696;8.662;2023-02-13T09:59:41;7.70;;;6.03;;
11893;SDS011;6006;49.696;8.662;2023-02-13T10:02:22;7.97;;;6.50;;
11893;SDS011;6006;49.696;8.662;2023-02-13T10:05:13;11.00;;;7.13;;
11893;SDS011;6006;49.696;8.662;2023-02-13T10:07:52;9.20;;;7.00;;
11893;SDS011;6006;49.696;8.662;2023-02-13T10:10:26;10.47;;;7.10;;
11893;SDS011;6006;49.696;8.662;2023-02-13T10:13:01;9.10;;;6.20;;
11893;SDS011;6006;49.696;8.662;2023-02-13T10:15:41;7.87;;;5.97;;
11893;SDS011;6006;49.696;8.662;2023-02-13T10:18:16;6.50;;;5.60;;
11893;SDS011;6006;49.696;8.662;2023-02-13T10:20:47;7.20;;;6.33;;
11893;SDS011;6006;49.696;8.662;2023-02-13T10:23:19;7.30;;;6.00;;
11893;SDS011;6006;49.696;8.662;2023-02-13T10:25:51;8.27;;;5.87;;
11893;SDS011;6006;49.696;8.662;2023-02-13T10:28:25;6.30;;;5.70;;
11893;SDS011;6006;49.696;8.662;2023-02-13T10:30:58;6.53;;;5.10;;
11893;SDS011;6006;49.696;8.662;2023-02-13T10:33:33;6.93;;;5.17;;
11893;SDS011;6006;49.696;8.662;2023-02-13T10:36:04;6.97;;;5.33;;
11893;SDS011;6006;49.696;8.662;2023-02-13T10:38:40;6.63;;;5.17;;
11893;SDS011;6006;49.696;8.662;2023-02-13T10:41:19;5.63;;;4.67;;
11893;SDS011;6006;49.696;8.662;2023-02-13T10:43:55;6.03;;;5.40;;
11893;SDS011;6006;49.696;8.662;2023-02-13T10:46:43;8.10;;;5.90;;
11893;SDS011;6006;49.696;8.662;2023-02-13T10:49:29;7.47;;;5.63;;
11893;SDS011;6006;49.696;8.662;2023-02-13T10:52:17;8.40;;;6.27;;
11893;SDS011;6006;49.696;8.662;2023-02-13T10:54:58;7.30;;;6.10;;
11893;SDS011;6006;49.696;8.662;2023-02-13T10:57:47;10.20;;;6.03;;
11893;SDS011;6006;49.696;8.662;2023-02-13T11:00:36;8.50;;;6.10;;
11893;SDS011;6006;49.696;8.662;2023-02-13T11:03:10;8.17;;;6.40;;
11893;SDS011;6006;49.696;8.662;2023-02-13T11:05:44;8.53;;;5.93;;
11893;SDS011;6006;49.696;8.662;2023-02-13T11:08:15;6.63;;;5.63;;
11893;SDS011;6006;49.696;8.662;2023-02-13T11:10:44;9.93;;;6.97;;
11893;SDS011;6006;49.696;8.662;2023-02-13T11:13:15;9.57;;;6.17;;
11893;SDS011;6006;49.696;8.662;2023-02-13T11:15:54;8.13;;;6.27;;
11893;SDS011;6006;49.696;8.662;2023-02-13T11:18:27;8.30;;;6.80;;
11893;SDS011;6006;49.696;8.662;2023-02-13T11:21:01;8.37;;;6.60;;
11893;SDS011;6006;49.696;8.662;2023-02-13T11:23:34;8.33;;;6.50;;
11893;SDS011;6006;49.696;8.662;2023-02-13T11:26:04;7.43;;;6.50;;
11893;SDS011;6006;49.696;8.662;2023-02-13T11:28:34;7.80;;;6.57;;
11893;SDS011;6006;49.696;8.662;2023-02-13T11:31:11;8.77;;;6.30;;
11893;SDS011;6006;49.696;8.662;2023-02-13T11:33:44;7.67;;;6.83;;
11893;SDS011;6006;49.696;8.662;2023-02-13T11:36:14;8.70;;;6.70;;
11893;SDS011;6006;49.696;8.662;2023-02-13T11:38:42;7.70;;;6.43;;
11893;SDS011;6006;49.696;8.662;2023-02-13T11:41:09;8.07;;;5.83;;
11893;SDS011;6006;49.696;8.662;2023-02-13T11:43:43;6.37;;;5.63;;
11893;SDS011;6006;49.696;8.662;2023-02-13T11:46:15;7.63;;;6.03;;
11893;SDS011;6006;49.696;8.662;2023-02-13T11:48:54;8.93;;;6.27;;
11893;SDS011;6006;49.696;8.662;2023-02-13T11:51:40;8.40;;;6.77;;
11893;SDS011;6006;49.696;8.662;2023-02-13T11:54:22;9.13;;;6.87;;
11893;SDS011;6006;49.696;8.662;2023-02-13T11:56:53;7.93;;;5.90;;
11893;SDS011;6006;49.696;8.662;2023-02-13T11:59:21;7.43;;;6.20;;
11893;SDS011;6006;49.696;8.662;2023-02-13T12:02:00;9.00;;;6.63;;
11893;SDS011;6006;49.696;8.662;2023-02-13T12:04:29;7.10;;;6.23;;
11893;SDS011;6006;49.696;8.662;2023-02-13T12:06:58;9.93;;;7.20;;
11893;SDS011;6006;49.696;8.662;2023-02-13T12:09:27;7.85;;;6.65;;
11893;SDS011;6006;49.696;8.662;2023-02-13T12:11:56;8.43;;;6.57;;
11893;SDS011;6006;49.696;8.662;2023-02-13T12:14:27;11.13;;;7.10;;
11893;SDS011;6006;49.696;8.662;2023-02-13T12:16:58;8.38;;;6.05;;
11893;SDS011;6006;49.696;8.662;2023-02-13T12:19:30;7.65;;;6.80;;
11893;SDS011;6006;49.696;8.662;2023-02-13T12:22:07;11.55;;;7.07;;
11893;SDS011;6006;49.696;8.662;2023-02-13T12:27:40;7.95;;;6.80;;
11893;SDS011;6006;49.696;8.662;2023-02-13T12:30:18;7.88;;;6.50;;
11893;SDS011;6006;49.696;8.662;2023-02-13T12:33:02;7.68;;;6.32;;
11893;SDS011;6006;49.696;8.662;2023-02-13T12:35:42;9.33;;;6.97;;
11893;SDS011;6006;49.696;8.662;2023-02-13T12:38:19;9.25;;;7.18;;
11893;SDS011;6006;49.696;8.662;2023-02-13T12:43:59;7.97;;;6.50;;
11893;SDS011;6006;49.696;8.662;2023-02-13T12:46:51;9.10;;;6.78;;
11893;SDS011;6006;49.696;8.662;2023-02-13T12:49:33;7.70;;;6.07;;
11893;SDS011;6006;49.696;8.662;2023-02-13T12:52:11;9.77;;;6.75;;
11893;SDS011;6006;49.696;8.662;2023-02-13T12:54:56;7.05;;;6.22;;
11893;SDS011;6006;49.696;8.662;2023-02-13T12:57:35;6.50;;;5.65;;
11893;SDS011;6006;49.696;8.662;2023-02-13T13:05:50;7.45;;;6.50;;
11893;SDS011;6006;49.696;8.662;2023-02-13T13:08:30;8.52;;;6.28;;
11893;SDS011;6006;49.696;8.662;2023-02-13T13:11:17;8.73;;;6.15;;
11893;SDS011;6006;49.696;8.662;2023-02-13T13:13:56;8.05;;;6.45;;
11893;SDS011;6006;49.696;8.662;2023-02-13T13:16:33;7.45;;;6.20;;
11893;SDS011;6006;49.696;8.662;2023-02-13T13:19:12;6.80;;;6.00;;
11893;SDS011;6006;49.696;8.662;2023-02-13T13:21:50;6.70;;;5.97;;
11893;SDS011;6006;49.696;8.662;2023-02-13T13:24:29;7.22;;;6.03;;
11893;SDS011;6006;49.696;8.662;2023-02-13T13:27:16;8.13;;;6.15;;
11893;SDS011;6006;49.696;8.662;2023-02-13T13:29:47;6.63;;;5.57;;
11893;SDS011;6006;49.696;8.662;2023-02-13T13:32:19;7.05;;;6.00;;
11893;SDS011;6006;49.696;8.662;2023-02-13T13:34:47;6.97;;;5.90;;
11893;SDS011;6006;49.696;8.662;2023-02-13T13:37:17;8.30;;;5.95;;
11893;SDS011;6006;49.696;8.662;2023-02-13T13:39:52;6.40;;;5.80;;
11893;SDS011;6006;49.696;8.662;2023-02-13T13:42:29;6.63;;;5.70;;
11893;SDS011;6006;49.696;8.662;2023-02-13T13:45:08;6.57;;;5.55;;
11893;SDS011;6006;49.696;8.662;2023-02-13T13:47:53;6.60;;;6.00;;
11893;SDS011;6006;49.696;8.662;2023-02-13T13:50:32;10.23;;;5.07;;
11893;SDS011;6006;49.696;8.662;2023-02-13T13:53:06;7.35;;;5.93;;
11893;SDS011;6006;49.696;8.662;2023-02-13T13:58:36;7.13;;;5.40;;
11893;SDS011;6006;49.696;8.662;2023-02-13T14:01:22;6.32;;;5.45;;
11893;SDS011;6006;49.696;8.662;2023-02-13T14:03:51;5.93;;;5.30;;
11893;SDS011;6006;49.696;8.662;2023-02-13T14:06:20;7.32;;;5.60;;
11893;SDS011;6006;49.696;8.662;2023-02-13T14:08:52;6.07;;;5.22;;
11893;SDS011;6006;49.696;8.662;2023-02-13T14:11:25;7.28;;;5.50;;
11893;SDS011;6006;49.696;8.662;2023-02-13T14:17:16;5.55;;;5.00;;
11893;SDS011;6006;49.696;8.662;2023-02-13T14:19:58;5.75;;;5.15;;
11893;SDS011;6006;49.696;8.662;2023-02-13T14:22:26;6.50;;;5.10;;
11893;SDS011;6006;49.696;8.662;2023-02-13T14:24:59;5.22;;;4.72;;
11893;SDS011;6006;49.696;8.662;2023-02-13T14:27:29;4.82;;;4.43;;
11893;SDS011;6006;49.696;8.662;2023-02-13T14:29:58;5.20;;;4.70;;
11893;SDS011;6006;49.696;8.662;2023-02-13T14:32:28;5.90;;;4.72;;
11893;SDS011;6006;49.696;8.662;2023-02-13T14:34:58;5.05;;;4.50;;
11893;SDS011;6006;49.696;8.662;2023-02-13T14:37:31;4.65;;;4.22;;
11893;SDS011;6006;49.696;8.662;2023-02-13T14:43:19;7.68;;;4.68;;
11893;SDS011;6006;49.696;8.662;2023-02-13T14:46:00;5.32;;;4.60;;
11893;SDS011;6006;49.696;8.662;2023-02-13T14:48:36;4.90;;;4.43;;
11893;SDS011;6006;49.696;8.662;2023-02-13T14:51:14;5.07;;;4.40;;
11893;SDS011;6006;49.696;8.662;2023-02-13T14:53:53;4.47;;;3.70;;
11893;SDS011;6006;49.696;8.662;2023-02-13T14:56:24;6.25;;;4.15;;
11893;SDS011;6006;49.696;8.662;2023-02-13T14:58:52;4.80;;;4.30;;
11893;SDS011;6006;49.696;8.662;2023-02-13T15:01:32;5.22;;;4.22;;
11893;SDS011;6006;49.696;8.662;2023-02-13T15:04:04;3.85;;;3.55;;
11893;SDS011;6006;49.696;8.662;2023-02-13T15:06:38;4.22;;;3.78;;
11893;SDS011;6006;49.696;8.662;2023-02-13T15:09:14;5.32;;;3.88;;
11893;SDS011;6006;49.696;8.662;2023-02-13T15:11:45;4.93;;;4.20;;
11893;SDS011;6006;49.696;8.662;2023-02-13T15:14:16;7.15;;;4.05;;
11893;SDS011;6006;49.696;8.662;2023-02-13T15:16:49;4.30;;;3.78;;
11893;SDS011;6006;49.696;8.662;2023-02-13T15:19:20;6.10;;;4.30;;
11893;SDS011;6006;49.696;8.662;2023-02-13T15:21:50;4.20;;;3.80;;
11893;SDS011;6006;49.696;8.662;2023-02-13T15:24:19;4.13;;;3.65;;
11893;SDS011;6006;49.696;8.662;2023-02-13T15:26:52;3.50;;;3.20;;
11893;SDS011;6006;49.696;8.662;2023-02-13T15:29:27;4.57;;;3.80;;
11893;SDS011;6006;49.696;8.662;2023-02-13T15:31:55;4.93;;;3.95;;
11893;SDS011;6006;49.696;8.662;2023-02-13T15:34:25;4.25;;;3.53;;
11893;SDS011;6006;49.696;8.662;2023-02-13T15:36:53;4.18;;;3.75;;
11893;SDS011;6006;49.696;8.662;2023-02-13T15:39:22;3.90;;;3.50;;
11893;SDS011;6006;49.696;8.662;2023-02-13T15:41:52;4.25;;;3.35;;
11893;SDS011;6006;49.696;8.662;2023-02-13T15:44:24;3.92;;;3.47;;
11893;SDS011;6006;49.696;8.662;2023-02-13T15:46:54;4.18;;;3.40;;
11893;SDS011;6006;49.696;8.662;2023-02-13T15:49:25;4.78;;;3.20;;
11893;SDS011;6006;49.696;8.662;2023-02-13T15:52:00;4.03;;;3.42;;
11893;SDS011;6006;49.696;8.662;2023-02-13T15:54:30;4.00;;;3.13;;